Time;durP1;ratioP1;P1;durP2;ratioP2;P2;SDS_P1;SDS_P2;PMS_P1;PMS_P2;Temp;Humidity;BMP_temperature;BMP_pressure;BME280_temperature;BME280_humidity;BME280_pressure;Samples;Min_cycle;Max_cycle;Signal;HPM_P1;HPM_P2
2022/04/14 00:02:08;;;;;;;27.45;11.18;;;;;;;-142.75;100.00;77696.41;5033450;28;19913;-67
2022/04/14 00:04:35;;;;;;;25.98;10.93;;;;;;;-142.75;100.00;77696.41;5015040;28;20036;-66
2022/04/14 00:07:01;;;;;;;20.35;10.55;;;;;;;-142.75;100.00;77692.47;5033403;28;20028;-66
2022/04/14 00:09:28;;;;;;;20.60;11.45;;;;;;;-142.75;100.00;77694.44;5032982;28;20072;-67
2022/04/14 00:11:53;;;;;;;18.67;10.85;;;;;;;-142.75;100.00;77698.38;5033237;28;20549;-67
2022/04/14 00:14:18;;;;;;;21.10;11.32;;;;;;;-142.75;100.00;77700.34;5033186;28;20100;-67
2022/04/14 00:16:44;;;;;;;22.35;11.82;;;;;;;-142.75;100.00;77700.34;5033327;28;20025;-67
2022/04/14 00:19:09;;;;;;;20.10;10.98;;;;;;;-142.75;100.00;77700.34;5032833;28;20029;-66
2022/04/14 00:21:34;;;;;;;;;;;;;;;-142.75;100.00;77700.34;5033587;28;20029;-67
2022/04/14 00:24:00;;;;;;;20.15;11.25;;;;;;;-142.75;100.00;77706.25;5032919;28;20386;-66
2022/04/14 00:26:25;;;;;;;;;;;;;;;-142.75;100.00;77700.34;5033327;28;20017;-67
2022/04/14 00:28:50;;;;;;;21.08;11.50;;;;;;;-142.75;100.00;77696.41;5032572;28;20065;-66
2022/04/14 00:31:15;;;;;;;;;;;;;;;-142.75;100.00;77698.38;5014616;28;20021;-67
2022/04/14 00:33:40;;;;;;;20.27;10.75;;;;;;;-142.75;100.00;77706.25;5033214;28;20271;-67
2022/04/14 00:36:06;;;;;;;20.80;10.88;;;;;;;-142.75;100.00;77712.16;5033042;28;20029;-66
2022/04/14 00:38:31;;;;;;;21.33;11.30;;;;;;;-142.75;100.00;77718.06;5032405;28;20471;-67
2022/04/14 00:40:56;;;;;;;19.65;11.55;;;;;;;-142.75;100.00;77716.09;5032709;28;20458;-67
2022/04/14 00:43:29;;;;;;;;;;;;;;;-142.75;100.00;77708.22;5015228;28;20029;-67
2022/04/14 00:45:54;;;;;;;22.63;12.15;;;;;;;-142.75;100.00;77720.03;5050517;28;20289;-67
2022/04/14 00:48:20;;;;;;;22.25;12.05;;;;;;;-142.75;100.00;77718.06;5052197;28;20025;-66
2022/04/14 00:50:45;;;;;;;21.55;12.15;;;;;;;-142.75;100.00;77716.09;5052330;28;20426;-67
2022/04/14 00:53:11;;;;;;;21.92;12.35;;;;;;;-142.75;100.00;77718.06;5046991;28;20057;-67
2022/04/14 00:55:36;;;;;;;23.92;11.75;;;;;;;-142.75;100.00;77720.03;5052350;28;20032;-67
2022/04/14 00:58:01;;;;;;;21.58;12.68;;;;;;;-142.75;100.00;77727.94;5051796;28;20021;-67
2022/04/14 01:00:27;;;;;;;27.52;13.73;;;;;;;-142.75;100.00;77729.88;5052399;28;20024;-67
2022/04/14 01:02:54;;;;;;;19.30;11.88;;;;;;;-142.75;100.00;77739.75;5052044;28;20028;-67
2022/04/14 01:05:21;;;;;;;24.23;12.15;;;;;;;-142.75;100.00;77739.75;5034091;28;20033;-67
2022/04/14 01:07:47;;;;;;;23.60;11.90;;;;;;;-142.75;100.00;77741.72;5040798;28;20064;-65
2022/04/14 01:10:13;;;;;;;20.90;12.23;;;;;;;-142.75;100.00;77745.66;5051888;28;20104;-67
2022/04/14 01:12:38;;;;;;;21.52;11.57;;;;;;;-142.75;100.00;77747.63;5052080;28;20418;-67
2022/04/14 01:15:09;;;;;;;20.17;11.57;;;;;;;-142.75;100.00;77741.72;5033158;28;20029;-67
2022/04/14 01:17:35;;;;;;;25.00;11.98;;;;;;;-142.75;100.00;77741.72;5032677;28;20708;-66
2022/04/14 01:20:00;;;;;;;21.88;11.93;;;;;;;-142.75;100.00;77751.56;5014094;28;20033;-67
2022/04/14 01:22:35;;;;;;;18.00;11.82;;;;;;;-142.75;100.00;77749.59;5032065;28;20055;-67
2022/04/14 01:25:02;;;;;;;18.83;11.65;;;;;;;-142.75;100.00;77751.56;5031831;28;20029;-67
2022/04/14 01:27:28;;;;;;;22.70;11.82;;;;;;;-142.75;100.00;77753.53;5032092;28;20463;-67
2022/04/14 01:29:55;;;;;;;20.58;11.35;;;;;;;-142.75;100.00;77747.63;5031170;28;20058;-67
2022/04/14 01:32:23;;;;;;;;;;;;;;;-142.75;100.00;77759.44;5032310;28;20567;-67
2022/04/14 01:34:50;;;;;;;21.73;11.23;;;;;;;-142.75;100.00;77759.44;5031673;28;19952;-67
2022/04/14 01:37:15;;;;;;;28.38;12.50;;;;;;;-142.75;100.00;77753.53;5045174;28;20047;-67
2022/04/14 01:39:41;;;;;;;25.50;11.55;;;;;;;-142.75;100.00;77763.38;5051141;28;20025;-67
2022/04/14 01:42:07;;;;;;;20.80;11.98;;;;;;;-142.75;100.00;77767.31;5051296;28;20021;-67
2022/04/14 01:44:32;;;;;;;20.45;11.32;;;;;;;-142.75;100.00;77775.19;5047083;28;20490;-66
2022/04/14 01:46:58;;;;;;;23.10;12.60;;;;;;;-142.75;100.00;77775.19;5034968;28;20083;-67
2022/04/14 01:49:23;;;;;;;20.48;11.00;;;;;;;-142.75;100.00;77767.31;5050960;28;20032;-67
2022/04/14 01:51:48;;;;;;;;;;;;;;;-142.75;100.00;77771.25;5037840;28;20109;-67
2022/04/14 01:54:14;;;;;;;24.65;11.32;;;;;;;-142.75;100.00;77771.25;5031234;28;19913;-67
2022/04/14 01:56:39;;;;;;;;;;;;;;;-142.75;100.00;77783.06;5013908;28;20029;-67
2022/04/14 01:59:05;;;;;;;19.45;10.57;;;;;;;-142.75;100.00;77775.19;5030810;28;20022;-67
2022/04/14 02:01:31;;;;;;;22.55;12.70;;;;;;;-142.75;100.00;77787.00;5031053;28;20546;-67
2022/04/14 02:03:58;;;;;;;23.42;12.30;;;;;;;-142.75;100.00;77787.00;5036756;28;20120;-67
2022/04/14 02:06:23;;;;;;;23.13;11.48;;;;;;;-142.75;100.00;77792.91;5030782;28;20026;-67
2022/04/14 02:08:49;;;;;;;21.75;11.85;;;;;;;-142.75;100.00;77800.78;5030730;28;20076;-67
2022/04/14 02:11:14;;;;;;;17.33;10.77;;;;;;;-142.75;100.00;77804.72;5031078;28;20033;-67
2022/04/14 02:13:39;;;;;;;19.70;11.13;;;;;;;-142.75;100.00;77806.69;5030850;28;20025;-67
2022/04/14 02:16:05;;;;;;;24.58;12.65;;;;;;;-142.75;100.00;77808.66;5031225;28;20025;-67
2022/04/14 02:18:31;;;;;;;22.90;12.30;;;;;;;-142.75;100.00;77808.66;5030990;28;20561;-66
2022/04/14 02:20:56;;;;;;;;;;;;;;;-142.75;100.00;77808.66;5013606;28;20040;-67
2022/04/14 02:23:23;;;;;;;20.13;11.05;;;;;;;-142.75;100.00;77804.72;5030741;28;19917;-67
2022/04/14 02:25:48;;;;;;;17.40;11.23;;;;;;;-142.75;100.00;77806.69;5019990;28;20036;-67
2022/04/14 02:28:14;;;;;;;18.65;11.18;;;;;;;-142.75;100.00;77814.56;5031557;28;20387;-67
2022/04/14 02:30:39;;;;;;;;;;;;;;;-142.75;100.00;77822.44;5013427;28;20040;-67
2022/04/14 02:33:05;;;;;;;22.13;11.57;;;;;;;-142.75;100.00;77822.44;5030477;28;19912;-67
2022/04/14 02:35:30;;;;;;;19.40;11.60;;;;;;;-142.75;100.00;77824.41;5012661;28;20479;-66
2022/04/14 02:37:56;;;;;;;17.63;10.68;;;;;;;-142.75;100.00;77826.38;5030393;28;20029;-67
2022/04/14 02:40:24;;;;;;;21.30;11.70;;;;;;;-142.75;100.00;77824.41;5045850;28;20065;-67
2022/04/14 02:42:49;;;;;;;17.27;10.65;;;;;;;-142.75;100.00;77824.41;5050328;28;20025;-66
2022/04/14 02:45:15;;;;;;;20.98;10.88;;;;;;;-142.75;100.00;77830.31;5049862;28;20163;-66
2022/04/14 02:47:40;;;;;;;28.67;13.43;;;;;;;-142.75;100.00;77834.25;5050873;28;20107;-67
2022/04/14 02:50:05;;;;;;;;;;;;;;;-142.75;100.00;77840.16;5032446;28;20021;-67
2022/04/14 02:52:31;;;;;;;18.02;10.55;;;;;;;-142.75;100.00;77846.06;5049793;28;20448;-67
2022/04/14 02:54:57;;;;;;;19.38;11.05;;;;;;;-142.75;100.00;77857.88;5035544;28;20032;-67
2022/04/14 02:57:22;;;;;;;21.45;11.18;;;;;;;-142.75;100.00;77853.94;5030145;28;20163;-67
2022/04/14 02:59:47;;;;;;;22.38;11.68;;;;;;;-142.75;100.00;77865.75;5029862;28;20052;-67
2022/04/14 03:02:13;;;;;;;21.92;11.23;;;;;;;-142.75;100.00;77859.84;5030296;28;20033;-66
2022/04/14 03:04:39;;;;;;;18.63;12.07;;;;;;;-142.75;100.00;77859.84;5029961;28;20037;-66
2022/04/14 03:07:05;;;;;;;19.83;11.07;;;;;;;-142.75;100.00;77867.72;5046041;28;20398;-66
2022/04/14 03:09:30;;;;;;;19.42;11.10;;;;;;;-142.75;100.00;77865.75;5049906;28;20052;-66
2022/04/14 03:11:55;;;;;;;20.15;12.02;;;;;;;-142.75;100.00;77877.56;5032287;28;20060;-67
2022/04/14 03:14:20;;;;;;;22.33;12.30;;;;;;;-142.75;100.00;77877.56;5050036;28;20017;-66
2022/04/14 03:16:46;;;;;;;22.20;11.73;;;;;;;-142.75;100.00;77877.56;5050350;28;20032;-66
2022/04/14 03:19:11;;;;;;;18.30;10.77;;;;;;;-142.75;100.00;77877.56;5032887;28;20029;-67
2022/04/14 03:21:36;;;;;;;19.90;10.65;;;;;;;-142.75;100.00;77879.53;5029934;28;20021;-67
2022/04/14 03:24:02;;;;;;;;;;;;;;;-142.75;100.00;77887.41;5034304;28;20441;-66
2022/04/14 03:26:27;;;;;;;21.65;11.48;;;;;;;-142.75;100.00;77889.38;5023542;28;20631;-67
2022/04/14 03:28:52;;;;;;;17.20;11.00;;;;;;;-142.75;100.00;77891.34;5015239;28;20582;-66
2022/04/14 03:31:17;;;;;;;23.13;11.65;;;;;;;-142.75;100.00;77893.31;5049972;28;20342;-66
2022/04/14 03:33:43;;;;;;;21.17;10.82;;;;;;;-142.75;100.00;77893.31;5049577;28;20114;-66
2022/04/14 03:36:08;;;;;;;20.38;11.02;;;;;;;-142.75;100.00;77893.31;5049596;28;20040;-66
2022/04/14 03:38:33;;;;;;;17.92;10.40;;;;;;;-142.75;100.00;77889.38;5049410;28;20071;-66
2022/04/14 03:41:06;;;;;;;20.55;10.13;;;;;;;-142.75;100.00;77891.34;5039982;28;20044;-67
2022/04/14 03:43:32;;;;;;;23.23;11.70;;;;;;;-142.75;100.00;77897.25;5012058;28;20040;-67
2022/04/14 03:45:57;;;;;;;22.15;11.73;;;;;;;-142.75;100.00;77901.19;5047017;22;20037;-65
2022/04/14 03:48:23;;;;;;;19.58;10.95;;;;;;;-142.75;100.00;77905.13;5016819;28;20087;-65
2022/04/14 03:50:48;;;;;;;18.92;11.57;;;;;;;-142.75;100.00;77915.00;5013251;28;20022;-65
2022/04/14 03:53:13;;;;;;;20.90;11.75;;;;;;;-142.75;100.00;77920.91;5025993;28;20411;-66
2022/04/14 03:55:39;;;;;;;17.58;10.82;;;;;;;-142.75;100.00;77932.72;5008220;28;20056;-66
2022/04/14 03:58:04;;;;;;;24.30;12.07;;;;;;;-142.75;100.00;77944.53;5022162;28;20026;-65
2022/04/14 04:00:29;;;;;;;20.80;11.27;;;;;;;-142.75;100.00;77948.47;5021953;28;20025;-67
2022/04/14 04:02:55;;;;;;;22.37;11.83;;;;;;;-142.75;100.00;77940.59;5029188;28;20491;-66
2022/04/14 04:05:20;;;;;;;25.25;12.15;;;;;;;-142.75;100.00;77934.69;5027711;28;20319;-66
2022/04/14 04:07:45;;;;;;;19.55;11.90;;;;;;;-142.75;100.00;77940.59;5023674;28;20079;-67
2022/04/14 04:10:10;;;;;;;21.27;11.38;;;;;;;-142.75;100.00;77948.47;5019569;28;20121;-66
2022/04/14 04:12:36;;;;;;;23.67;11.73;;;;;;;-142.75;100.00;77956.34;5024946;28;20112;-66
2022/04/14 04:15:01;;;;;;;21.00;12.13;;;;;;;-142.75;100.00;77952.41;5027668;28;20153;-65
2022/04/14 04:17:27;;;;;;;19.42;11.73;;;;;;;-142.75;100.00;77960.28;5011257;28;20056;-65
2022/04/14 04:19:52;;;;;;;18.05;10.52;;;;;;;-142.75;100.00;77960.28;5018828;28;20037;-65
2022/04/14 04:22:17;;;;;;;24.13;11.73;;;;;;;-142.75;100.00;77962.25;5033418;28;20025;-65
2022/04/14 04:24:43;;;;;;;21.27;12.15;;;;;;;-142.75;100.00;77964.22;5028706;28;20457;-65
2022/04/14 04:27:08;;;;;;;19.77;11.15;;;;;;;-142.75;100.00;77968.16;5034265;28;20099;-65
2022/04/14 04:29:34;;;;;;;22.45;11.55;;;;;;;-142.75;100.00;77964.22;5030618;28;20084;-65
2022/04/14 04:31:59;;;;;;;22.20;11.68;;;;;;;-142.75;100.00;77960.28;5027124;28;20071;-65
2022/04/14 04:34:24;;;;;;;21.90;11.98;;;;;;;-142.75;100.00;77962.25;5014272;28;20049;-65
2022/04/14 04:36:50;;;;;;;20.70;11.73;;;;;;;-142.75;100.00;77970.13;5028626;28;20026;-65
2022/04/14 04:39:16;;;;;;;22.13;12.73;;;;;;;-142.75;100.00;77972.09;5032436;28;20037;-65
2022/04/14 04:41:41;;;;;;;23.55;13.07;;;;;;;-142.75;100.00;77979.97;5034383;28;20017;-65
2022/04/14 04:44:06;;;;;;;22.30;12.20;;;;;;;-142.75;100.00;77983.91;5027777;28;20020;-65
2022/04/14 04:46:32;;;;;;;21.95;11.75;;;;;;;-142.75;100.00;77987.84;5015864;28;20030;-66
2022/04/14 04:48:57;;;;;;;26.23;12.55;;;;;;;-142.75;100.00;77987.84;5026018;28;20029;-66
2022/04/14 04:51:22;;;;;;;19.00;11.77;;;;;;;-142.75;100.00;77991.78;5030647;28;20029;-66
2022/04/14 04:53:48;;;;;;;24.27;11.45;;;;;;;-142.75;100.00;78001.63;5028116;28;20104;-66
2022/04/14 04:56:13;;;;;;;19.80;11.20;;;;;;;-142.75;100.00;78003.59;5034042;28;20040;-65
2022/04/14 04:58:38;;;;;;;21.63;12.05;;;;;;;-142.75;100.00;77999.66;5002272;28;20026;-65
2022/04/14 05:01:04;;;;;;;19.75;10.80;;;;;;;-142.75;100.00;77999.66;5019898;28;20026;-65
2022/04/14 05:03:29;;;;;;;19.98;11.77;;;;;;;-142.75;100.00;77995.72;5014027;28;20488;-64
2022/04/14 05:05:54;;;;;;;21.85;11.23;;;;;;;-142.75;100.00;77999.66;5016210;28;20029;-65
2022/04/14 05:08:20;;;;;;;18.93;11.53;;;;;;;-142.75;100.00;77997.69;5033311;28;20033;-65
2022/04/14 05:10:45;;;;;;;21.45;11.80;;;;;;;-142.75;100.00;77993.75;5015919;28;20272;-66
2022/04/14 05:13:10;;;;;;;22.23;12.07;;;;;;;-142.75;100.00;77989.81;5033750;28;20097;-65
2022/04/14 05:15:36;;;;;;;21.98;13.07;;;;;;;-142.75;100.00;77987.84;5032903;28;20030;-65
2022/04/14 05:18:01;;;;;;;31.73;13.45;;;;;;;-142.75;100.00;77987.84;5033257;28;20028;-65
2022/04/14 05:20:27;;;;;;;21.73;12.82;;;;;;;-142.75;100.00;77987.84;5032925;28;20096;-65
2022/04/14 05:22:52;;;;;;;23.45;12.60;;;;;;;-142.75;100.00;77983.91;5022159;28;20061;-65
2022/04/14 05:25:17;;;;;;;25.85;13.70;;;;;;;-142.75;100.00;77981.94;5032203;28;20037;-65
2022/04/14 05:27:43;;;;;;;26.25;13.95;;;;;;;-142.75;100.00;77985.88;5014948;28;20033;-64
2022/04/14 05:30:10;;;;;;;26.58;13.98;;;;;;;-142.75;100.00;77976.03;5032179;28;20026;-65
2022/04/14 05:32:38;;;;;;;22.73;12.57;;;;;;;-142.75;100.00;77964.22;5032041;28;20116;-65
2022/04/14 05:35:06;;;;;;;23.35;13.23;;;;;;;-142.75;100.00;77944.53;5022869;28;20030;-64
2022/04/14 05:37:31;;;;;;;25.55;13.00;;;;;;;-142.75;100.00;77930.75;5024997;28;20057;-66
2022/04/14 05:39:56;;;;;;;28.40;13.32;;;;;;;-142.75;100.00;77918.94;5030574;28;20040;-65
2022/04/14 05:42:22;;;;;;;25.50;13.77;;;;;;;-142.75;100.00;77911.06;5012556;28;20060;-65
2022/04/14 05:44:47;;;;;;;21.67;12.30;;;;;;;-142.75;100.00;77915.00;5016280;28;20028;-65
2022/04/14 05:47:13;;;;;;;24.83;12.27;;;;;;;-142.75;100.00;77895.28;5032019;28;20514;-65
2022/04/14 05:49:38;;;;;;;27.23;12.90;;;;;;;-142.75;100.00;77875.59;5031571;28;20099;-65
2022/04/14 05:52:03;;;;;;;23.33;12.88;;;;;;;-142.75;100.00;77853.94;5031852;28;20054;-64
2022/04/14 05:54:29;;;;;;;25.10;11.73;;;;;;;-142.75;100.00;77828.34;5031861;28;20032;-65
2022/04/14 05:56:54;;;;;;;23.55;12.90;;;;;;;-142.75;100.00;77812.59;5031374;28;20403;-64
2022/04/14 05:59:19;;;;;;;21.55;12.30;;;;;;;-142.75;100.00;77806.69;5031381;28;20021;-65
2022/04/14 06:01:46;;;;;;;21.95;12.43;;;;;;;-142.75;100.00;77790.94;5031452;28;20471;-65
2022/04/14 06:04:11;;;;;;;21.33;12.45;;;;;;;-142.75;100.00;77779.13;5031491;28;20029;-64
2022/04/14 06:06:37;;;;;;;24.90;12.05;;;;;;;-142.75;100.00;77755.50;5031284;28;20095;-65
2022/04/14 06:09:02;;;;;;;24.33;12.45;;;;;;;-142.75;100.00;77735.81;5031519;28;20486;-65
2022/04/14 06:11:28;;;;;;;23.23;12.43;;;;;;;-142.75;100.00;77727.94;5031893;28;20032;-65
2022/04/14 06:13:54;;;;;;;24.23;11.85;;;;;;;-142.75;100.00;77723.97;5031163;28;20105;-64
2022/04/14 06:16:19;;;;;;;28.70;12.05;;;;;;;-142.75;100.00;77704.28;5032013;28;20059;-63
2022/04/14 06:18:45;;;;;;;24.77;12.57;;;;;;;-142.75;100.00;77686.56;5031238;28;20094;-64
2022/04/14 06:21:10;;;;;;;21.77;11.43;;;;;;;-142.75;100.00;77666.88;5010295;28;20030;-64
2022/04/14 06:23:36;;;;;;;28.02;11.65;;;;;;;-142.75;100.00;77641.28;5010338;28;20113;-64
2022/04/14 06:26:02;;;;;;;22.95;12.00;;;;;;;-142.75;100.00;77619.63;5009949;28;20033;-64
2022/04/14 06:28:29;;;;;;;23.23;11.82;;;;;;;-142.75;100.00;77586.16;5010249;28;20026;-64
2022/04/14 06:30:54;;;;;;;21.67;12.35;;;;;;;-142.75;100.00;77584.19;5010946;28;20029;-63
2022/04/14 06:33:20;;;;;;;23.33;12.27;;;;;;;-142.75;100.00;77570.41;5011860;28;20044;-64
2022/04/14 06:35:46;;;;;;;19.67;11.18;;;;;;;-142.75;100.00;77554.66;5022818;28;20036;-64
2022/04/14 06:38:11;;;;;;;21.63;11.30;;;;;;;-142.75;100.00;77538.91;5029946;28;20033;-64
2022/04/14 06:40:36;;;;;;;19.52;10.60;;;;;;;-142.75;100.00;77511.34;5029954;28;20027;-65
2022/04/14 06:43:02;;;;;;;20.88;11.50;;;;;;;-142.75;100.00;77487.72;5029988;28;20056;-64
2022/04/14 06:45:28;;;;;;;23.95;11.25;;;;;;;-142.75;100.00;77464.09;5029550;28;20021;-65
2022/04/14 06:47:53;;;;;;;;;;;;;;;-142.75;100.00;77452.25;5030213;28;20033;-65
2022/04/14 06:50:19;;;;;;;20.13;10.00;;;;;;;-142.75;100.00;77440.44;5029842;28;19983;-65
2022/04/14 06:52:44;;;;;;;23.58;11.15;;;;;;;-142.75;100.00;77418.78;5030021;28;20033;-65
2022/04/14 06:55:10;;;;;;;;;;;;;;;-142.75;100.00;77408.94;5019376;28;20129;-65
2022/04/14 06:57:35;;;;;;;21.45;9.75;;;;;;;-142.75;100.00;77385.31;5009066;28;19951;-66
2022/04/14 07:00:00;;;;;;;;;;;;;;;-142.75;100.00;77377.44;5009361;28;20018;-65
2022/04/14 07:02:26;;;;;;;19.48;9.57;;;;;;;-142.75;100.00;77365.63;5010010;28;20307;-66
2022/04/14 07:04:51;;;;;;;;;;;;;;;-142.75;100.00;77355.78;5010645;28;20029;-65
2022/04/14 07:07:16;;;;;;;18.65;8.68;;;;;;;-142.75;100.00;77324.28;5009810;28;19971;-66
2022/04/14 07:09:41;;;;;;;;;;;;;;;-142.75;100.00;77314.44;5010137;28;20026;-67
2022/04/14 07:12:08;;;;;;;15.75;8.40;;;;;;;-142.75;100.00;77300.66;5010336;28;19914;-65
2022/04/14 07:14:33;;;;;;;20.88;8.90;;;;;;;-142.75;100.00;77279.00;5009910;28;20181;-65
2022/04/14 07:17:00;;;;;;;17.23;8.90;;;;;;;-142.75;100.00;77263.25;5010053;28;20097;-65
2022/04/14 07:19:26;;;;;;;21.63;9.15;;;;;;;-142.75;100.00;77277.03;5009798;28;20052;-65
2022/04/14 07:21:53;;;;;;;19.27;9.25;;;;;;;-142.75;100.00;77269.16;5010536;28;20064;-66
2022/04/14 07:24:18;;;;;;;;;;;;;;;-142.75;100.00;77259.31;5011247;28;20033;-66
2022/04/14 07:26:44;;;;;;;20.25;8.48;;;;;;;-142.75;100.00;77235.69;5006538;28;19920;-66
2022/04/14 07:29:09;;;;;;;;;;;;;;;-142.75;100.00;77219.94;4996514;28;20465;-64
2022/04/14 07:31:36;;;;;;;18.77;8.95;;;;;;;-142.75;100.00;77239.63;5010626;28;19917;-62
2022/04/14 07:34:02;;;;;;;19.00;8.90;;;;;;;-142.75;100.00;77255.38;4992912;28;20025;-63
2022/04/14 07:36:28;;;;;;;18.77;9.20;;;;;;;-142.75;100.00;77271.13;5010410;28;20034;-63
2022/04/14 07:38:53;;;;;;;;;;;;;;;-142.75;100.00;77290.81;5011900;28;20048;-63
2022/04/14 07:41:18;;;;;;;19.50;7.32;;;;;;;-142.75;100.00;77316.41;5014585;28;19920;-63
2022/04/14 07:43:44;;;;;;;;;;;;;;;-142.75;100.00;77342.00;5014335;28;20372;-65
2022/04/14 07:46:09;;;;;;;15.35;6.80;;;;;;;-142.75;100.00;77373.50;5013572;28;19914;-64
2022/04/14 07:48:34;;;;;;;;;;;;;;;-142.75;100.00;77373.50;5014016;28;20036;-64
2022/04/14 07:51:01;;;;;;;13.15;6.40;;;;;;;-142.75;100.00;77377.44;4996083;28;19913;-65
2022/04/14 07:53:27;;;;;;;19.13;7.82;;;;;;;-142.75;100.00;77349.88;5013536;28;20033;-66
2022/04/14 07:55:53;;;;;;;;;;;;;;;-142.75;100.00;77292.78;5013901;28;20026;-66
2022/04/14 07:58:19;;;;;;;14.85;6.93;;;;;;;-142.75;100.00;77259.31;5013295;28;19944;-64
2022/04/14 08:00:45;;;;;;;;;;;;;;;-142.75;100.00;77216.00;4995568;28;20025;-65
2022/04/14 08:03:10;;;;;;;13.43;7.22;;;;;;;-142.75;100.00;77154.97;5013634;28;19936;-65
2022/04/14 08:05:43;;;;;;;;;;;;;;;-142.75;100.00;77107.72;5013679;28;20448;-66
2022/04/14 08:08:13;;;;;;;13.65;6.85;;;;;;;-142.75;100.00;77056.53;4995468;28;19914;-65
2022/04/14 08:10:44;;;;;;;14.05;7.18;;;;;;;-142.75;100.00;77044.72;5013162;28;20030;-65
2022/04/14 08:13:10;;;;;;;15.85;7.03;;;;;;;-142.75;100.00;77052.59;5020407;28;20029;-67
2022/04/14 08:15:36;;;;;;;;;;;;;;;-142.75;100.00;77046.69;5033360;28;20372;-65
2022/04/14 08:18:02;;;;;;;12.93;6.37;;;;;;;-142.75;100.00;77042.75;5014935;28;19920;-64
2022/04/14 08:20:29;;;;;;;13.43;6.70;;;;;;;-142.75;100.00;77054.56;5033147;28;20060;-63
2022/04/14 08:22:57;;;;;;;16.13;6.80;;;;;;;-142.75;100.00;77015.19;5032842;28;20029;-65
2022/04/14 08:25:24;;;;;;;13.77;7.00;;;;;;;-142.75;100.00;77003.38;5032042;28;20029;-66
2022/04/14 08:27:51;;;;;;;16.85;7.28;;;;;;;-142.75;100.00;76952.19;4992518;28;20026;-65
2022/04/14 08:30:19;;;;;;;13.60;6.47;;;;;;;-142.75;100.00;76936.44;5012599;28;20033;-65
2022/04/14 08:32:46;;;;;;;12.40;6.47;;;;;;;-142.75;100.00;76920.69;4995125;28;20391;-66
2022/04/14 08:35:12;;;;;;;13.15;6.60;;;;;;;-142.75;100.00;76865.56;5016030;28;20071;-65
2022/04/14 08:37:39;;;;;;;13.65;6.25;;;;;;;-142.75;100.00;76834.06;5015496;28;20079;-66
2022/04/14 08:40:07;;;;;;;11.95;6.47;;;;;;;-142.75;100.00;76788.81;4997665;28;20372;-66
2022/04/14 08:42:39;;;;;;;12.20;5.93;;;;;;;-142.75;100.00;76788.81;5014061;28;20403;-65
2022/04/14 08:45:10;;;;;;;14.65;6.25;;;;;;;-142.75;100.00;76712.03;4995517;28;20380;-66
2022/04/14 08:47:37;;;;;;;15.45;7.20;;;;;;;-142.75;100.00;76719.91;4995269;28;20384;-65
2022/04/14 08:50:08;;;;;;;11.57;5.22;;;;;;;-142.75;100.00;76643.13;4995027;28;20026;-65
2022/04/14 08:52:34;;;;;;;15.38;6.57;;;;;;;-142.75;100.00;76625.41;5012158;28;20037;-67
2022/04/14 08:55:06;;;;;;;8.52;5.15;;;;;;;-142.75;100.00;76601.78;5012074;28;20076;-66
2022/04/14 08:57:32;;;;;;;9.32;5.13;;;;;;;-142.75;100.00;76698.25;5012361;28;20113;-66
2022/04/14 08:59:59;;;;;;;11.10;5.00;;;;;;;-142.75;100.00;76652.97;5011868;28;20033;-66
2022/04/14 09:02:25;;;;;;;10.13;5.22;;;;;;;-142.75;100.00;76582.09;5010426;28;20033;-66
2022/04/14 09:04:50;;;;;;;10.73;4.15;;;;;;;-142.75;100.00;76611.63;5012123;28;20030;-66
2022/04/14 09:07:16;;;;;;;8.60;3.90;;;;;;;-142.75;100.00;76589.97;5011795;28;20084;-66
2022/04/14 09:09:43;;;;;;;10.75;4.57;;;;;;;-142.75;100.00;76540.75;5011900;28;20496;-66
2022/04/14 09:12:10;;;;;;;9.30;4.03;;;;;;;-142.75;100.00;76546.66;5011859;28;20053;-66
2022/04/14 09:14:37;;;;;;;13.65;5.55;;;;;;;-142.75;100.00;76515.19;5012135;28;20048;-66
2022/04/14 09:17:06;;;;;;;13.70;6.18;;;;;;;-142.75;100.00;76566.34;5011834;28;20056;-67
2022/04/14 09:19:33;;;;;;;14.15;7.97;;;;;;;-142.75;100.00;76542.72;5011656;28;20029;-66
2022/04/14 09:21:59;;;;;;;14.95;7.15;;;;;;;-142.75;100.00;76566.34;5011978;28;20037;-66
2022/04/14 09:24:42;;;;;;;18.58;8.18;;;;;;;-142.75;100.00;76538.78;4995152;28;20026;-67
2022/04/14 09:27:09;;;;;;;13.13;6.50;;;;;;;-142.75;100.00;76580.13;5012745;28;20041;-67
2022/04/14 09:29:35;;;;;;;15.60;6.60;;;;;;;-142.75;100.00;76544.69;5012439;28;20025;-67
2022/04/14 09:32:01;;;;;;;16.80;6.03;;;;;;;-142.75;100.00;76507.31;5012708;28;20025;-67
2022/04/14 09:34:51;;;;;;;13.25;6.32;;;;;;;-142.75;100.00;76446.28;5012591;28;20079;-67
2022/04/14 09:37:17;;;;;;;14.15;7.43;;;;;;;-142.75;100.00;76440.38;4995002;28;20037;-67
2022/04/14 09:40:08;;;;;;;12.38;6.45;;;;;;;-142.75;100.00;76462.03;5012323;28;20052;-67
2022/04/14 09:42:39;;;;;;;20.40;6.97;;;;;;;-142.75;100.00;76521.09;4994923;28;20554;-67
2022/04/14 09:45:20;;;;;;;18.63;6.38;;;;;;;-142.75;100.00;76479.75;5012406;28;20037;-67
2022/04/14 09:47:48;;;;;;;17.23;6.40;;;;;;;-142.75;100.00;76475.81;5065581;22;20045;-65
2022/04/14 09:50:26;;;;;;;12.88;6.53;;;;;;;-142.75;100.00;76440.38;5048049;28;20106;-67
2022/04/14 09:53:08;;;;;;;13.35;6.13;;;;;;;-142.75;100.00;76432.50;5051208;28;20032;-66
2022/04/14 09:55:35;;;;;;;9.13;4.05;;;;;;;-142.75;100.00;76481.72;5050030;28;20017;-67
2022/04/14 09:58:16;;;;;;;8.95;3.65;;;;;;;-142.75;100.00;76513.22;5050602;28;20033;-67
2022/04/14 10:00:57;;;;;;;7.75;3.00;;;;;;;-142.75;100.00;76485.66;5051177;28;20040;-67
2022/04/14 10:03:27;;;;;;;6.95;3.38;;;;;;;-142.75;100.00;76546.66;5050010;28;20028;-67
2022/04/14 10:05:58;;;;;;;6.55;3.20;;;;;;;-142.75;100.00;76589.97;5050721;28;20048;-66
2022/04/14 10:08:24;;;;;;;6.13;3.47;;;;;;;-142.75;100.00;76613.59;5050697;28;20191;-67
2022/04/14 10:11:03;;;;;;;8.63;3.33;;;;;;;-142.75;100.00;76637.22;5050836;28;20025;-67
2022/04/14 10:13:34;;;;;;;5.80;2.85;;;;;;;-142.75;100.00;76645.09;5051060;28;20439;-67
2022/04/14 10:16:00;;;;;;;4.88;2.38;;;;;;;-142.75;100.00;76656.91;5044933;28;20024;-66
2022/04/14 10:18:25;;;;;;;9.25;2.47;;;;;;;-142.75;100.00;76676.59;5039169;28;20086;-67
2022/04/14 10:20:50;;;;;;;7.28;2.33;;;;;;;-142.75;100.00;76747.47;5038876;28;20037;-67
2022/04/14 10:23:16;;;;;;;5.50;2.42;;;;;;;-142.75;100.00;76763.22;5039148;28;20024;-67
2022/04/14 10:25:42;;;;;;;5.75;2.72;;;;;;;-142.75;100.00;76674.63;5038911;28;20047;-67
2022/04/14 10:28:15;;;;;;;3.78;1.95;;;;;;;-142.75;100.00;76556.50;5038226;28;20028;-66
2022/04/14 10:30:45;;;;;;;7.60;2.13;;;;;;;-142.75;100.00;76505.34;5039528;28;20035;-67
2022/04/14 10:33:12;;;;;;;9.85;2.40;;;;;;;-142.75;100.00;76538.78;5038540;28;20021;-65
2022/04/14 10:35:37;;;;;;;9.07;2.20;;;;;;;-142.75;100.00;76613.59;5024477;28;20132;-65
2022/04/14 10:38:12;;;;;;;3.75;1.90;;;;;;;-142.75;100.00;76654.94;5018110;28;20025;-66
2022/04/14 10:40:45;;;;;;;6.30;2.20;;;;;;;-142.75;100.00;76643.13;5038328;28;20060;-66
2022/04/14 10:43:12;;;;;;;3.83;2.15;;;;;;;-142.75;100.00;76672.66;5039195;28;20035;-66
2022/04/14 10:45:53;;;;;;;4.90;2.42;;;;;;;-142.75;100.00;76700.22;5039531;28;20061;-66
2022/04/14 10:48:32;;;;;;;4.70;2.88;;;;;;;-142.75;100.00;76678.56;5038263;28;20025;-66
2022/04/14 10:51:18;;;;;;;5.07;2.65;;;;;;;-142.75;100.00;76603.75;5033160;28;20604;-65
2022/04/14 10:53:48;;;;;;;6.00;2.40;;;;;;;-142.75;100.00;76507.31;5037951;28;20102;-65
2022/04/14 10:56:44;;;;;;;7.20;2.95;;;;;;;-142.75;100.00;76424.63;5038983;28;20029;-66
2022/04/14 10:59:21;;;;;;;6.78;2.85;;;;;;;-142.75;100.00;76349.81;5036311;28;20116;-67
2022/04/14 11:04:21;;;;;;;4.80;1.92;;;;;;;-142.75;99.08;76284.88;5038834;28;20028;-67
2022/04/14 11:06:47;;;;;;;7.75;2.30;;;;;;;-142.75;95.04;76324.25;5037311;28;20040;-67